Time;durP1;ratioP1;P1;durP2;ratioP2;P2;SDS_P1;SDS_P2;PMS_P1;PMS_P2;Temp;Humidity;BMP_temperature;BMP_pressure;BME280_temperature;BME280_humidity;BME280_pressure;Samples;Min_cycle;Max_cycle;Signal;HPM_P1;HPM_P2
2021/11/24 00:04:40;;;;;;;133.63;50.50;;;;;;;5.95;100.00;101006.67;714164;1177;114041;-82
2021/11/24 00:19:42;;;;;;;233.43;75.70;;;;;;;5.99;100.00;100983.90;713724;1178;114380;-82
2021/11/24 00:34:45;;;;;;;363.67;101.50;;;;;;;5.97;100.00;100988.34;713715;1203;114809;-82
2021/11/24 00:49:47;;;;;;;233.83;68.73;;;;;;;6.02;100.00;100970.72;713584;1177;114486;-81
2021/11/24 01:04:50;;;;;;;178.33;51.88;;;;;;;6.06;100.00;100956.59;713759;1177;114393;-82
2021/11/24 01:19:52;;;;;;;317.75;93.73;;;;;;;6.09;100.00;100951.19;713673;1177;114231;-82
2021/11/24 01:34:54;;;;;;;241.45;72.78;;;;;;;6.16;100.00;100930.81;713684;1200;115187;-82
2021/11/24 01:49:57;;;;;;;133.63;44.87;;;;;;;6.30;100.00;100912.59;713797;1204;114594;-82
2021/11/24 02:04:59;;;;;;;96.65;39.55;;;;;;;6.40;100.00;100897.26;713667;1180;114359;-83
2021/11/24 02:20:03;;;;;;;50.58;25.95;;;;;;;6.49;100.00;100895.84;713652;1200;114362;-82
2021/11/24 02:35:05;;;;;;;39.03;18.50;;;;;;;6.56;100.00;100897.16;713718;1199;114465;-82
2021/11/24 02:50:08;;;;;;;30.98;15.53;;;;;;;6.53;100.00;100870.44;713665;1177;114197;-82
2021/11/24 03:05:11;;;;;;;148.37;48.87;;;;;;;6.61;100.00;100857.75;713730;1202;114593;-82
2021/11/24 03:20:14;;;;;;;164.43;57.77;;;;;;;6.69;100.00;100863.34;713884;1177;114521;-82
2021/11/24 03:35:17;;;;;;;69.68;34.13;;;;;;;6.76;100.00;100862.02;713654;1202;115990;-82
2021/11/24 03:50:20;;;;;;;47.23;23.48;;;;;;;6.85;100.00;100833.67;713620;1190;115370;-82
2021/11/24 04:05:22;;;;;;;77.55;34.28;;;;;;;6.91;100.00;100828.90;714332;1204;114492;-82
2021/11/24 04:20:25;;;;;;;83.10;38.55;;;;;;;6.99;100.00;100820.59;714761;1177;114161;-82
2021/11/24 04:35:27;;;;;;;34.27;17.67;;;;;;;7.02;100.00;100820.41;713810;1176;114222;-82
2021/11/24 04:50:30;;;;;;;30.43;16.10;;;;;;;7.04;100.00;100815.91;713573;1200;114601;-83
2021/11/24 05:05:32;;;;;;;30.33;17.28;;;;;;;7.10;100.00;100817.28;716633;1200;115285;-82
2021/11/24 05:20:37;;;;;;;30.58;15.85;;;;;;;7.13;100.00;100812.70;716761;1200;115757;-83
2021/11/24 05:35:39;;;;;;;25.75;13.98;;;;;;;7.14;100.00;100803.95;715368;1202;115162;-83
2021/11/24 05:50:45;;;;;;;23.93;13.25;;;;;;;7.10;100.00;100801.63;715110;1200;114178;-83
2021/11/24 06:05:49;;;;;;;54.18;26.98;;;;;;;7.06;100.00;100814.05;715148;1178;114503;-83
2021/11/24 06:20:51;;;;;;;28.15;16.50;;;;;;;7.07;100.00;100825.31;713766;1197;114166;-82
2021/11/24 06:35:54;;;;;;;43.60;22.80;;;;;;;7.00;100.00;100812.66;714530;1178;114258;-77
2021/11/24 06:50:56;;;;;;;27.85;15.58;;;;;;;6.98;100.00;100822.37;714379;1200;114420;-79
2021/11/24 07:05:59;;;;;;;28.80;15.00;;;;;;;7.06;100.00;100842.75;713835;1202;115161;-77
2021/11/24 07:21:01;;;;;;;37.33;18.78;;;;;;;7.15;100.00;100847.38;713849;1199;114108;-83
2021/11/24 07:36:04;;;;;;;35.48;18.15;;;;;;;7.14;100.00;100863.95;713753;1203;114919;-84
2021/11/24 07:51:06;;;;;;;32.53;17.60;;;;;;;7.20;100.00;100859.28;713867;1200;115214;-86
2021/11/24 08:06:09;;;;;;;26.93;14.83;;;;;;;7.28;100.00;100854.39;715250;1200;115326;-86
2021/11/24 08:21:12;;;;;;;31.28;16.80;;;;;;;7.38;100.00;100847.64;715503;1200;114807;-86
2021/11/24 08:36:15;;;;;;;53.05;21.65;;;;;;;7.55;100.00;100859.59;715733;1200;114979;-87
2021/11/24 08:51:18;;;;;;;65.83;25.83;;;;;;;7.73;100.00;100862.73;715606;1200;114058;-86
2021/11/24 09:06:20;;;;;;;33.33;16.50;;;;;;;7.61;100.00;100853.11;715520;1177;114179;-78
2021/11/24 09:21:24;;;;;;;29.58;16.40;;;;;;;7.73;100.00;100841.83;715554;1203;114421;-78
2021/11/24 09:36:27;;;;;;;26.83;14.87;;;;;;;7.97;100.00;100844.58;714024;1183;114220;-78
2021/11/24 09:51:33;;;;;;;29.58;16.98;;;;;;;7.96;100.00;100832.45;713749;1176;114125;-82
2021/11/24 10:06:40;;;;;;;32.20;20.13;;;;;;;7.98;100.00;100832.34;713925;1200;114933;-82
2021/11/24 10:22:04;;;;;;;54.25;24.53;;;;;;;8.11;100.00;100824.50;714046;1203;113575;-82
2021/11/24 10:37:16;;;;;;;27.10;16.18;;;;;;;8.12;100.00;100810.50;714063;1177;114519;-82
2021/11/24 10:52:44;;;;;;;144.78;54.73;;;;;;;8.31;100.00;100810.03;713955;1201;114617;-82
2021/11/24 11:07:50;;;;;;;84.93;38.65;;;;;;;8.21;100.00;100809.86;713960;1178;114383;-83
2021/11/24 11:23:20;;;;;;;55.50;25.25;;;;;;;8.30;100.00;100803.13;714050;1202;115542;-83
2021/11/24 11:38:24;;;;;;;76.47;28.67;;;;;;;8.45;100.00;100791.63;714330;1200;114901;-80
2021/11/24 11:53:30;;;;;;;56.37;23.57;;;;;;;8.42;100.00;100776.14;714686;1177;114701;-78
2021/11/24 12:08:33;;;;;;;41.90;19.35;;;;;;;8.52;100.00;100765.05;714941;1200;115599;-78
2021/11/24 12:23:36;;;;;;;59.90;46.60;;;;;;;8.73;100.00;100754.82;715013;1199;114195;-85
2021/11/24 12:38:55;;;;;;;39.05;20.52;;;;;;;8.73;100.00;100746.97;715831;1199;115814;-78
2021/11/24 12:54:11;;;;;;;32.13;19.18;;;;;;;8.85;100.00;100734.78;715377;1200;115875;-79
2021/11/24 13:09:16;;;;;;;24.37;12.43;;;;;;;8.82;100.00;100739.27;714831;1182;114631;-74
2021/11/24 13:24:35;;;;;;;28.28;13.68;;;;;;;8.78;100.00;100743.06;715226;1202;115240;-74
2021/11/24 13:39:38;;;;;;;21.05;13.15;;;;;;;8.67;100.00;100732.57;715562;1200;115134;-73
2021/11/24 13:54:51;;;;;;;74.00;32.17;;;;;;;8.63;100.00;100736.33;715163;1202;114434;-76
2021/11/24 14:09:56;;;;;;;38.13;22.23;;;;;;;8.66;100.00;100709.97;715179;1200;116103;-74
2021/11/24 14:24:58;;;;;;;16.10;10.55;;;;;;;8.56;100.00;100714.20;714903;1200;114561;-74
2021/11/24 14:40:01;;;;;;;114.63;45.63;;;;;;;8.47;100.00;100716.55;714860;1176;114897;-75
2021/11/24 14:55:04;;;;;;;58.07;33.83;;;;;;;8.41;100.00;100709.09;715086;1179;114618;-76
2021/11/24 15:10:07;;;;;;;25.60;15.30;;;;;;;8.36;100.00;100703.37;715479;1200;116105;-73
2021/11/24 15:25:10;;;;;;;31.88;16.68;;;;;;;8.41;100.00;100703.88;715682;1200;116229;-71
2021/11/24 15:40:12;;;;;;;32.30;14.63;;;;;;;8.35;100.00;100701.69;716033;1176;114198;-74
2021/11/24 15:55:16;;;;;;;68.35;23.63;;;;;;;8.31;100.00;100695.88;715668;1176;114662;-74
2021/11/24 16:10:24;;;;;;;53.38;20.45;;;;;;;8.37;100.00;100701.58;716369;1203;115778;-74
2021/11/24 16:25:27;;;;;;;61.53;23.30;;;;;;;8.39;100.00;100697.08;714989;1203;113568;-74
2021/11/24 16:40:30;;;;;;;57.48;22.90;;;;;;;8.34;100.00;100697.44;714852;1200;114867;-74
2021/11/24 16:55:33;;;;;;;64.23;26.90;;;;;;;8.28;100.00;100693.45;715060;1193;114745;-74
2021/11/24 17:10:36;;;;;;;46.03;19.78;;;;;;;8.28;100.00;100696.07;717301;1200;114666;-83
2021/11/24 17:25:42;;;;;;;22.95;12.25;;;;;;;8.24;100.00;100688.58;715868;1200;114723;-85
2021/11/24 17:40:50;;;;;;;20.37;11.17;;;;;;;8.20;100.00;100689.74;715912;1179;114872;-79
2021/11/24 17:55:54;;;;;;;162.33;86.13;;;;;;;8.18;100.00;100681.98;716795;1178;114080;-84
2021/11/24 18:10:57;;;;;;;50.73;25.77;;;;;;;8.22;100.00;100686.08;715682;1201;114659;-77
2021/11/24 18:26:04;;;;;;;38.30;18.33;;;;;;;8.16;100.00;100676.88;715950;1176;114298;-77
2021/11/24 18:41:07;;;;;;;34.45;20.55;;;;;;;8.20;100.00;100666.22;715341;1177;114208;-78
2021/11/24 18:56:10;;;;;;;43.87;19.63;;;;;;;8.16;100.00;100666.42;715949;1200;114976;-78
2021/11/24 19:11:14;;;;;;;34.83;17.17;;;;;;;8.18;100.00;100660.26;715251;1176;114354;-78
2021/11/24 19:26:21;;;;;;;54.95;20.18;;;;;;;8.15;100.00;100656.09;715378;1199;114582;-78
2021/11/24 19:41:27;;;;;;;54.10;20.97;;;;;;;8.13;100.00;100640.52;715347;1199;114269;-78
2021/11/24 19:56:31;;;;;;;41.23;17.53;;;;;;;8.10;100.00;100627.69;716237;1200;114262;-76
2021/11/24 20:11:34;;;;;;;48.57;23.10;;;;;;;8.09;100.00;100633.85;716006;1200;114076;-76
2021/11/24 20:26:36;;;;;;;58.63;22.83;;;;;;;8.06;100.00;100623.59;715006;1177;114161;-75
2021/11/24 20:41:39;;;;;;;39.80;16.40;;;;;;;8.07;100.00;100625.27;714974;1189;114159;-78
2021/11/24 20:56:42;;;;;;;30.35;15.95;;;;;;;8.05;100.00;100615.88;714971;1200;114964;-77
2021/11/24 21:11:45;;;;;;;34.28;17.48;;;;;;;8.06;100.00;100607.92;714774;1200;115676;-80
2021/11/24 21:26:48;;;;;;;36.93;17.73;;;;;;;8.04;100.00;100604.60;714724;1177;114076;-78
2021/11/24 21:41:51;;;;;;;33.33;17.48;;;;;;;7.98;100.00;100615.48;714221;1180;114617;-79
2021/11/24 21:56:54;;;;;;;31.87;17.33;;;;;;;7.94;100.00;100593.97;714241;1177;114238;-77
2021/11/24 22:11:56;;;;;;;41.67;21.50;;;;;;;7.91;100.00;100603.83;714252;1177;114806;-77
2021/11/24 22:26:59;;;;;;;37.15;21.03;;;;;;;7.87;100.00;100584.09;715123;1200;114180;-78
2021/11/24 22:42:01;;;;;;;34.75;18.35;;;;;;;7.92;100.00;100571.54;714501;1177;114590;-78
2021/11/24 22:57:04;;;;;;;37.73;19.83;;;;;;;7.88;100.00;100546.55;714380;1177;114394;-79
2021/11/24 23:12:07;;;;;;;39.20;20.40;;;;;;;7.84;100.00;100532.91;714703;1200;114841;-78
2021/11/24 23:27:10;;;;;;;29.65;16.38;;;;;;;7.71;100.00;100519.89;714914;1200;114181;-78
2021/11/24 23:42:15;;;;;;;32.60;17.55;;;;;;;7.67;100.00;100502.79;714330;1197;114661;-79
2021/11/24 23:57:17;;;;;;;29.65;15.73;;;;;;;7.84;100.00;100504.17;714070;1203;114500;-77
